sensor_id;sensor_type;location;lat;lon;timestamp;P1;durP1;ratioP1;P2;durP2;ratioP2
16705;SDS011;8469;60.136;15.180;2023-05-09T00:02:19;2.25;;;1.82;;
16705;SDS011;8469;60.136;15.180;2023-05-09T00:04:47;3.77;;;1.85;;
16705;SDS011;8469;60.136;15.180;2023-05-09T00:07:14;4.28;;;1.90;;
16705;SDS011;8469;60.136;15.180;2023-05-09T00:09:41;3.52;;;1.90;;
16705;SDS011;8469;60.136;15.180;2023-05-09T00:12:09;4.12;;;2.10;;
16705;SDS011;8469;60.136;15.180;2023-05-09T00:14:37;6.05;;;1.92;;
16705;SDS011;8469;60.136;15.180;2023-05-09T00:17:06;3.70;;;2.10;;
16705;SDS011;8469;60.136;15.180;2023-05-09T00:19:33;3.62;;;1.87;;
16705;SDS011;8469;60.136;15.180;2023-05-09T00:22:00;4.65;;;1.80;;
16705;SDS011;8469;60.136;15.180;2023-05-09T00:24:30;3.07;;;2.00;;
16705;SDS011;8469;60.136;15.180;2023-05-09T00:26:58;2.80;;;1.90;;
16705;SDS011;8469;60.136;15.180;2023-05-09T00:29:29;4.58;;;1.77;;
16705;SDS011;8469;60.136;15.180;2023-05-09T00:31:54;3.60;;;1.93;;
16705;SDS011;8469;60.136;15.180;2023-05-09T00:34:22;3.20;;;1.87;;
16705;SDS011;8469;60.136;15.180;2023-05-09T00:36:49;3.08;;;1.85;;
16705;SDS011;8469;60.136;15.180;2023-05-09T00:39:16;2.33;;;1.92;;
16705;SDS011;8469;60.136;15.180;2023-05-09T00:41:44;2.12;;;1.82;;
16705;SDS011;8469;60.136;15.180;2023-05-09T00:44:11;1.80;;;1.70;;
16705;SDS011;8469;60.136;15.180;2023-05-09T00:46:38;5.45;;;1.80;;
16705;SDS011;8469;60.136;15.180;2023-05-09T00:49:05;3.42;;;1.62;;
16705;SDS011;8469;60.136;15.180;2023-05-09T00:51:34;4.22;;;2.00;;
16705;SDS011;8469;60.136;15.180;2023-05-09T00:54:06;2.60;;;2.30;;
16705;SDS011;8469;60.136;15.180;2023-05-09T00:56:33;2.27;;;1.70;;
16705;SDS011;8469;60.136;15.180;2023-05-09T00:59:07;3.63;;;1.97;;
16705;SDS011;8469;60.136;15.180;2023-05-09T01:01:31;5.90;;;2.30;;
16705;SDS011;8469;60.136;15.180;2023-05-09T01:03:59;8.13;;;2.00;;
16705;SDS011;8469;60.136;15.180;2023-05-09T01:06:31;4.53;;;2.00;;
16705;SDS011;8469;60.136;15.180;2023-05-09T01:09:01;2.30;;;1.90;;
16705;SDS011;8469;60.136;15.180;2023-05-09T01:11:44;3.08;;;2.10;;
16705;SDS011;8469;60.136;15.180;2023-05-09T01:14:12;2.30;;;1.87;;
16705;SDS011;8469;60.136;15.180;2023-05-09T01:16:42;3.02;;;1.92;;
16705;SDS011;8469;60.136;15.180;2023-05-09T01:21:55;3.77;;;1.80;;
16705;SDS011;8469;60.136;15.180;2023-05-09T01:27:52;2.72;;;1.90;;
16705;SDS011;8469;60.136;15.180;2023-05-09T01:29:40;9.33;;;2.30;;
16705;SDS011;8469;60.136;15.180;2023-05-09T01:32:09;4.42;;;2.05;;
16705;SDS011;8469;60.136;15.180;2023-05-09T01:34:37;3.47;;;2.12;;
16705;SDS011;8469;60.136;15.180;2023-05-09T01:37:06;3.77;;;2.12;;
16705;SDS011;8469;60.136;15.180;2023-05-09T01:39:34;2.50;;;2.10;;
16705;SDS011;8469;60.136;15.180;2023-05-09T01:42:03;4.10;;;2.10;;
16705;SDS011;8469;60.136;15.180;2023-05-09T01:44:36;6.55;;;2.20;;
16705;SDS011;8469;60.136;15.180;2023-05-09T01:47:01;6.40;;;2.40;;
16705;SDS011;8469;60.136;15.180;2023-05-09T01:49:31;3.87;;;2.33;;
16705;SDS011;8469;60.136;15.180;2023-05-09T01:52:00;7.45;;;2.30;;
16705;SDS011;8469;60.136;15.180;2023-05-09T01:54:28;5.87;;;2.10;;
16705;SDS011;8469;60.136;15.180;2023-05-09T01:56:56;2.50;;;2.20;;
16705;SDS011;8469;60.136;15.180;2023-05-09T01:59:25;2.55;;;2.30;;
16705;SDS011;8469;60.136;15.180;2023-05-09T02:01:53;6.72;;;2.58;;
16705;SDS011;8469;60.136;15.180;2023-05-09T02:04:21;5.80;;;2.40;;
16705;SDS011;8469;60.136;15.180;2023-05-09T02:06:49;4.42;;;2.37;;
16705;SDS011;8469;60.136;15.180;2023-05-09T02:09:17;4.00;;;2.58;;
16705;SDS011;8469;60.136;15.180;2023-05-09T02:11:45;6.40;;;2.35;;
16705;SDS011;8469;60.136;15.180;2023-05-09T02:14:12;4.27;;;2.33;;
16705;SDS011;8469;60.136;15.180;2023-05-09T02:16:40;4.33;;;2.50;;
16705;SDS011;8469;60.136;15.180;2023-05-09T02:19:07;5.95;;;2.02;;
16705;SDS011;8469;60.136;15.180;2023-05-09T02:21:34;5.33;;;2.58;;
16705;SDS011;8469;60.136;15.180;2023-05-09T02:24:02;4.67;;;2.20;;
16705;SDS011;8469;60.136;15.180;2023-05-09T02:26:30;3.30;;;2.45;;
16705;SDS011;8469;60.136;15.180;2023-05-09T02:28:57;2.77;;;2.30;;
16705;SDS011;8469;60.136;15.180;2023-05-09T02:31:25;2.42;;;2.20;;
16705;SDS011;8469;60.136;15.180;2023-05-09T02:33:53;2.35;;;2.15;;
16705;SDS011;8469;60.136;15.180;2023-05-09T02:36:21;2.60;;;2.37;;
16705;SDS011;8469;60.136;15.180;2023-05-09T02:38:48;4.08;;;2.08;;
16705;SDS011;8469;60.136;15.180;2023-05-09T02:41:16;4.17;;;2.00;;
16705;SDS011;8469;60.136;15.180;2023-05-09T02:43:43;7.23;;;2.80;;
16705;SDS011;8469;60.136;15.180;2023-05-09T02:46:15;7.35;;;2.37;;
16705;SDS011;8469;60.136;15.180;2023-05-09T02:48:40;5.65;;;2.47;;
16705;SDS011;8469;60.136;15.180;2023-05-09T02:51:06;4.75;;;2.30;;
16705;SDS011;8469;60.136;15.180;2023-05-09T02:53:35;3.70;;;2.25;;
16705;SDS011;8469;60.136;15.180;2023-05-09T02:56:02;9.80;;;2.42;;
16705;SDS011;8469;60.136;15.180;2023-05-09T02:58:31;15.43;;;3.00;;
16705;SDS011;8469;60.136;15.180;2023-05-09T03:00:58;8.45;;;2.67;;
16705;SDS011;8469;60.136;15.180;2023-05-09T03:03:26;3.80;;;2.37;;
16705;SDS011;8469;60.136;15.180;2023-05-09T03:05:53;7.97;;;2.70;;
16705;SDS011;8469;60.136;15.180;2023-05-09T03:08:20;17.82;;;2.77;;
16705;SDS011;8469;60.136;15.180;2023-05-09T03:10:48;15.48;;;2.70;;
16705;SDS011;8469;60.136;15.180;2023-05-09T03:13:16;12.55;;;3.20;;
16705;SDS011;8469;60.136;15.180;2023-05-09T03:15:43;13.50;;;3.17;;
16705;SDS011;8469;60.136;15.180;2023-05-09T03:18:11;14.13;;;2.65;;
16705;SDS011;8469;60.136;15.180;2023-05-09T03:20:38;9.63;;;2.90;;
16705;SDS011;8469;60.136;15.180;2023-05-09T03:23:05;15.63;;;3.20;;
16705;SDS011;8469;60.136;15.180;2023-05-09T03:25:33;14.73;;;3.00;;
16705;SDS011;8469;60.136;15.180;2023-05-09T03:28:00;9.65;;;2.65;;
16705;SDS011;8469;60.136;15.180;2023-05-09T03:30:28;11.77;;;2.63;;
16705;SDS011;8469;60.136;15.180;2023-05-09T03:32:55;8.88;;;2.50;;
16705;SDS011;8469;60.136;15.180;2023-05-09T03:35:22;3.87;;;2.57;;
16705;SDS011;8469;60.136;15.180;2023-05-09T03:37:50;3.25;;;2.35;;
16705;SDS011;8469;60.136;15.180;2023-05-09T03:40:17;9.40;;;2.40;;
16705;SDS011;8469;60.136;15.180;2023-05-09T03:42:44;4.40;;;2.50;;
16705;SDS011;8469;60.136;15.180;2023-05-09T03:45:12;4.23;;;2.57;;
16705;SDS011;8469;60.136;15.180;2023-05-09T03:47:40;5.78;;;2.60;;
16705;SDS011;8469;60.136;15.180;2023-05-09T03:50:07;13.32;;;2.80;;
16705;SDS011;8469;60.136;15.180;2023-05-09T03:52:34;7.87;;;2.60;;
16705;SDS011;8469;60.136;15.180;2023-05-09T03:55:02;12.03;;;3.65;;
16705;SDS011;8469;60.136;15.180;2023-05-09T03:57:31;7.37;;;2.60;;
16705;SDS011;8469;60.136;15.180;2023-05-09T03:59:58;6.90;;;2.98;;
16705;SDS011;8469;60.136;15.180;2023-05-09T04:02:26;9.68;;;3.33;;
16705;SDS011;8469;60.136;15.180;2023-05-09T04:04:53;12.35;;;3.25;;
16705;SDS011;8469;60.136;15.180;2023-05-09T04:07:20;8.23;;;3.40;;
16705;SDS011;8469;60.136;15.180;2023-05-09T04:09:48;18.07;;;3.75;;
16705;SDS011;8469;60.136;15.180;2023-05-09T04:12:16;17.15;;;3.52;;
16705;SDS011;8469;60.136;15.180;2023-05-09T04:14:43;7.53;;;2.72;;
16705;SDS011;8469;60.136;15.180;2023-05-09T04:17:11;6.30;;;2.90;;
16705;SDS011;8469;60.136;15.180;2023-05-09T04:19:38;9.13;;;3.12;;
16705;SDS011;8469;60.136;15.180;2023-05-09T04:22:05;18.75;;;3.02;;
16705;SDS011;8469;60.136;15.180;2023-05-09T04:24:33;42.73;;;4.33;;
16705;SDS011;8469;60.136;15.180;2023-05-09T04:27:01;37.27;;;4.43;;
16705;SDS011;8469;60.136;15.180;2023-05-09T04:29:28;9.43;;;3.02;;
16705;SDS011;8469;60.136;15.180;2023-05-09T04:31:55;14.95;;;3.20;;
16705;SDS011;8469;60.136;15.180;2023-05-09T04:34:23;14.00;;;3.77;;
16705;SDS011;8469;60.136;15.180;2023-05-09T04:36:51;27.95;;;4.30;;
16705;SDS011;8469;60.136;15.180;2023-05-09T04:39:19;34.60;;;4.65;;
16705;SDS011;8469;60.136;15.180;2023-05-09T04:41:46;17.70;;;3.00;;
16705;SDS011;8469;60.136;15.180;2023-05-09T04:44:15;9.80;;;2.93;;
16705;SDS011;8469;60.136;15.180;2023-05-09T04:46:43;13.77;;;3.10;;
16705;SDS011;8469;60.136;15.180;2023-05-09T04:49:11;20.97;;;3.12;;
16705;SDS011;8469;60.136;15.180;2023-05-09T04:51:38;19.55;;;3.05;;
16705;SDS011;8469;60.136;15.180;2023-05-09T04:54:05;7.58;;;2.70;;
16705;SDS011;8469;60.136;15.180;2023-05-09T04:56:33;14.93;;;3.15;;
16705;SDS011;8469;60.136;15.180;2023-05-09T04:59:00;16.27;;;3.25;;
16705;SDS011;8469;60.136;15.180;2023-05-09T05:01:28;16.73;;;3.02;;
16705;SDS011;8469;60.136;15.180;2023-05-09T05:03:54;15.05;;;3.15;;
16705;SDS011;8469;60.136;15.180;2023-05-09T05:06:22;9.60;;;2.75;;
16705;SDS011;8469;60.136;15.180;2023-05-09T05:08:52;5.40;;;2.30;;
16705;SDS011;8469;60.136;15.180;2023-05-09T05:11:19;9.10;;;2.30;;
16705;SDS011;8469;60.136;15.180;2023-05-09T05:13:47;25.25;;;3.45;;
16705;SDS011;8469;60.136;15.180;2023-05-09T05:16:14;19.77;;;2.87;;
16705;SDS011;8469;60.136;15.180;2023-05-09T05:18:41;40.55;;;4.00;;
16705;SDS011;8469;60.136;15.180;2023-05-09T05:21:09;22.15;;;3.27;;
16705;SDS011;8469;60.136;15.180;2023-05-09T05:23:36;11.28;;;3.00;;
16705;SDS011;8469;60.136;15.180;2023-05-09T05:26:04;14.63;;;2.85;;
16705;SDS011;8469;60.136;15.180;2023-05-09T05:28:31;13.30;;;3.10;;
16705;SDS011;8469;60.136;15.180;2023-05-09T05:30:58;12.45;;;3.12;;
16705;SDS011;8469;60.136;15.180;2023-05-09T05:33:26;24.57;;;3.23;;
16705;SDS011;8469;60.136;15.180;2023-05-09T05:35:53;25.23;;;3.50;;
16705;SDS011;8469;60.136;15.180;2023-05-09T05:38:21;19.40;;;3.60;;
16705;SDS011;8469;60.136;15.180;2023-05-09T05:40:48;15.45;;;2.90;;
16705;SDS011;8469;60.136;15.180;2023-05-09T05:43:15;36.83;;;3.75;;
16705;SDS011;8469;60.136;15.180;2023-05-09T05:45:43;13.65;;;2.72;;
16705;SDS011;8469;60.136;15.180;2023-05-09T05:48:11;44.70;;;4.67;;
16705;SDS011;8469;60.136;15.180;2023-05-09T05:50:38;28.62;;;3.20;;
16705;SDS011;8469;60.136;15.180;2023-05-09T05:53:06;12.60;;;2.52;;
16705;SDS011;8469;60.136;15.180;2023-05-09T05:55:33;13.55;;;2.60;;
16705;SDS011;8469;60.136;15.180;2023-05-09T05:58:02;11.18;;;2.62;;
16705;SDS011;8469;60.136;15.180;2023-05-09T06:00:29;13.72;;;2.40;;
16705;SDS011;8469;60.136;15.180;2023-05-09T06:02:57;6.47;;;2.12;;
16705;SDS011;8469;60.136;15.180;2023-05-09T06:05:24;10.32;;;2.30;;
16705;SDS011;8469;60.136;15.180;2023-05-09T06:07:51;4.75;;;2.05;;
16705;SDS011;8469;60.136;15.180;2023-05-09T06:10:19;6.08;;;2.10;;
16705;SDS011;8469;60.136;15.180;2023-05-09T06:12:46;10.20;;;2.30;;
16705;SDS011;8469;60.136;15.180;2023-05-09T06:15:14;19.43;;;2.30;;
16705;SDS011;8469;60.136;15.180;2023-05-09T06:17:40;3.33;;;1.82;;
16705;SDS011;8469;60.136;15.180;2023-05-09T06:20:14;4.30;;;2.17;;
16705;SDS011;8469;60.136;15.180;2023-05-09T06:22:37;7.47;;;2.10;;
16705;SDS011;8469;60.136;15.180;2023-05-09T06:25:05;13.70;;;2.83;;
16705;SDS011;8469;60.136;15.180;2023-05-09T06:27:32;6.83;;;2.20;;
16705;SDS011;8469;60.136;15.180;2023-05-09T06:30:00;5.70;;;2.15;;
16705;SDS011;8469;60.136;15.180;2023-05-09T06:32:27;5.62;;;2.02;;
16705;SDS011;8469;60.136;15.180;2023-05-09T06:34:55;5.17;;;1.90;;
16705;SDS011;8469;60.136;15.180;2023-05-09T06:37:22;3.95;;;1.85;;
16705;SDS011;8469;60.136;15.180;2023-05-09T06:39:50;2.65;;;2.08;;
16705;SDS011;8469;60.136;15.180;2023-05-09T06:42:17;2.10;;;1.77;;
16705;SDS011;8469;60.136;15.180;2023-05-09T06:44:44;13.53;;;2.00;;
16705;SDS011;8469;60.136;15.180;2023-05-09T06:47:12;3.87;;;2.05;;
16705;SDS011;8469;60.136;15.180;2023-05-09T06:49:39;4.97;;;2.00;;
16705;SDS011;8469;60.136;15.180;2023-05-09T06:52:06;4.12;;;2.20;;
16705;SDS011;8469;60.136;15.180;2023-05-09T06:54:34;3.77;;;1.80;;
16705;SDS011;8469;60.136;15.180;2023-05-09T06:57:01;5.78;;;2.08;;
16705;SDS011;8469;60.136;15.180;2023-05-09T06:59:30;10.70;;;2.10;;
16705;SDS011;8469;60.136;15.180;2023-05-09T07:01:57;10.68;;;2.20;;
16705;SDS011;8469;60.136;15.180;2023-05-09T07:04:24;3.27;;;1.95;;
16705;SDS011;8469;60.136;15.180;2023-05-09T07:06:52;4.80;;;2.22;;
16705;SDS011;8469;60.136;15.180;2023-05-09T07:09:19;15.20;;;2.35;;
16705;SDS011;8469;60.136;15.180;2023-05-09T07:11:47;7.00;;;2.10;;
16705;SDS011;8469;60.136;15.180;2023-05-09T07:14:14;11.97;;;2.30;;
16705;SDS011;8469;60.136;15.180;2023-05-09T07:16:41;8.73;;;2.25;;
16705;SDS011;8469;60.136;15.180;2023-05-09T07:19:09;3.37;;;2.33;;
16705;SDS011;8469;60.136;15.180;2023-05-09T07:21:36;3.25;;;2.10;;
16705;SDS011;8469;60.136;15.180;2023-05-09T07:24:04;2.67;;;2.00;;
16705;SDS011;8469;60.136;15.180;2023-05-09T07:26:31;2.90;;;2.02;;
16705;SDS011;8469;60.136;15.180;2023-05-09T07:28:59;8.35;;;1.87;;
16705;SDS011;8469;60.136;15.180;2023-05-09T07:31:26;3.05;;;1.90;;
16705;SDS011;8469;60.136;15.180;2023-05-09T07:33:53;4.37;;;2.02;;
16705;SDS011;8469;60.136;15.180;2023-05-09T07:36:21;2.08;;;1.80;;
16705;SDS011;8469;60.136;15.180;2023-05-09T07:38:50;9.53;;;3.00;;
16705;SDS011;8469;60.136;15.180;2023-05-09T07:41:18;4.62;;;1.82;;
16705;SDS011;8469;60.136;15.180;2023-05-09T07:43:46;5.55;;;2.00;;
16705;SDS011;8469;60.136;15.180;2023-05-09T07:46:13;3.33;;;1.75;;
16705;SDS011;8469;60.136;15.180;2023-05-09T07:48:40;3.05;;;1.92;;
16705;SDS011;8469;60.136;15.180;2023-05-09T07:51:08;4.92;;;2.00;;
16705;SDS011;8469;60.136;15.180;2023-05-09T07:53:36;2.40;;;2.20;;
16705;SDS011;8469;60.136;15.180;2023-05-09T07:56:03;5.80;;;1.90;;
16705;SDS011;8469;60.136;15.180;2023-05-09T07:58:32;6.20;;;2.08;;
16705;SDS011;8469;60.136;15.180;2023-05-09T08:01:00;4.70;;;1.90;;
16705;SDS011;8469;60.136;15.180;2023-05-09T08:03:27;5.15;;;2.00;;
16705;SDS011;8469;60.136;15.180;2023-05-09T08:05:54;8.18;;;1.92;;
16705;SDS011;8469;60.136;15.180;2023-05-09T08:08:23;8.60;;;2.20;;
16705;SDS011;8469;60.136;15.180;2023-05-09T08:10:51;10.83;;;2.20;;
16705;SDS011;8469;60.136;15.180;2023-05-09T08:13:18;4.35;;;2.12;;
16705;SDS011;8469;60.136;15.180;2023-05-09T08:15:47;4.47;;;2.20;;
16705;SDS011;8469;60.136;15.180;2023-05-09T08:18:15;5.20;;;2.00;;
16705;SDS011;8469;60.136;15.180;2023-05-09T08:20:42;4.58;;;2.00;;
16705;SDS011;8469;60.136;15.180;2023-05-09T08:23:10;25.92;;;2.98;;
16705;SDS011;8469;60.136;15.180;2023-05-09T08:25:37;5.92;;;2.30;;
16705;SDS011;8469;60.136;15.180;2023-05-09T08:28:04;7.40;;;2.42;;
16705;SDS011;8469;60.136;15.180;2023-05-09T08:30:32;7.35;;;2.02;;
16705;SDS011;8469;60.136;15.180;2023-05-09T08:32:59;7.78;;;2.00;;
16705;SDS011;8469;60.136;15.180;2023-05-09T08:35:27;6.80;;;2.10;;
16705;SDS011;8469;60.136;15.180;2023-05-09T08:37:54;15.18;;;2.20;;
16705;SDS011;8469;60.136;15.180;2023-05-09T08:40:21;7.47;;;1.70;;
16705;SDS011;8469;60.136;15.180;2023-05-09T08:42:49;4.78;;;1.80;;
16705;SDS011;8469;60.136;15.180;2023-05-09T08:45:16;10.88;;;2.30;;
16705;SDS011;8469;60.136;15.180;2023-05-09T08:47:46;5.00;;;1.82;;
16705;SDS011;8469;60.136;15.180;2023-05-09T08:50:13;8.80;;;2.10;;
16705;SDS011;8469;60.136;15.180;2023-05-09T08:52:42;2.87;;;1.70;;
16705;SDS011;8469;60.136;15.180;2023-05-09T08:55:10;4.90;;;1.98;;
16705;SDS011;8469;60.136;15.180;2023-05-09T08:57:38;1.75;;;1.65;;
16705;SDS011;8469;60.136;15.180;2023-05-09T09:00:05;10.40;;;2.08;;
16705;SDS011;8469;60.136;15.180;2023-05-09T09:02:34;6.83;;;2.00;;
16705;SDS011;8469;60.136;15.180;2023-05-09T09:05:02;5.72;;;1.70;;
16705;SDS011;8469;60.136;15.180;2023-05-09T09:07:33;3.45;;;2.17;;
16705;SDS011;8469;60.136;15.180;2023-05-09T09:10:02;3.50;;;1.72;;
16705;SDS011;8469;60.136;15.180;2023-05-09T09:12:30;11.22;;;2.45;;
16705;SDS011;8469;60.136;15.180;2023-05-09T09:14:59;3.10;;;1.80;;
16705;SDS011;8469;60.136;15.180;2023-05-09T09:17:26;19.62;;;2.27;;
16705;SDS011;8469;60.136;15.180;2023-05-09T09:19:59;4.78;;;2.08;;
16705;SDS011;8469;60.136;15.180;2023-05-09T09:22:31;3.87;;;2.10;;
16705;SDS011;8469;60.136;15.180;2023-05-09T09:24:59;5.22;;;1.90;;
16705;SDS011;8469;60.136;15.180;2023-05-09T09:27:27;8.23;;;2.10;;
16705;SDS011;8469;60.136;15.180;2023-05-09T09:29:54;3.62;;;1.98;;
16705;SDS011;8469;60.136;15.180;2023-05-09T09:32:31;3.45;;;1.87;;
16705;SDS011;8469;60.136;15.180;2023-05-09T09:35:02;5.03;;;2.05;;
16705;SDS011;8469;60.136;15.180;2023-05-09T09:37:22;3.53;;;1.80;;
16705;SDS011;8469;60.136;15.180;2023-05-09T09:39:54;5.42;;;1.75;;
16705;SDS011;8469;60.136;15.180;2023-05-09T09:42:21;1.70;;;1.60;;
16705;SDS011;8469;60.136;15.180;2023-05-09T09:45:01;2.30;;;1.80;;
16705;SDS011;8469;60.136;15.180;2023-05-09T09:47:30;7.00;;;1.92;;
16705;SDS011;8469;60.136;15.180;2023-05-09T09:49:57;7.83;;;1.85;;
16705;SDS011;8469;60.136;15.180;2023-05-09T09:52:27;12.50;;;2.00;;
16705;SDS011;8469;60.136;15.180;2023-05-09T09:54:54;46.43;;;3.83;;
16705;SDS011;8469;60.136;15.180;2023-05-09T09:57:35;12.73;;;2.33;;
16705;SDS011;8469;60.136;15.180;2023-05-09T10:00:03;11.03;;;1.90;;
16705;SDS011;8469;60.136;15.180;2023-05-09T10:02:31;11.20;;;2.10;;
16705;SDS011;8469;60.136;15.180;2023-05-09T10:05:09;2.60;;;2.10;;
16705;SDS011;8469;60.136;15.180;2023-05-09T10:07:33;7.95;;;2.00;;
16705;SDS011;8469;60.136;15.180;2023-05-09T10:10:01;2.42;;;1.70;;
16705;SDS011;8469;60.136;15.180;2023-05-09T10:12:32;4.30;;;1.80;;
16705;SDS011;8469;60.136;15.180;2023-05-09T10:15:00;9.10;;;1.70;;
16705;SDS011;8469;60.136;15.180;2023-05-09T10:17:28;4.90;;;1.62;;
16705;SDS011;8469;60.136;15.180;2023-05-09T10:19:58;6.42;;;1.80;;
16705;SDS011;8469;60.136;15.180;2023-05-09T10:22:28;3.00;;;1.60;;
16705;SDS011;8469;60.136;15.180;2023-05-09T10:25:07;3.47;;;1.80;;
16705;SDS011;8469;60.136;15.180;2023-05-09T10:27:25;3.40;;;1.70;;
16705;SDS011;8469;60.136;15.180;2023-05-09T10:29:56;7.15;;;1.80;;
16705;SDS011;8469;60.136;15.180;2023-05-09T10:32:22;5.30;;;1.90;;
16705;SDS011;8469;60.136;15.180;2023-05-09T10:34:52;2.50;;;1.70;;
16705;SDS011;8469;60.136;15.180;2023-05-09T10:37:22;2.40;;;1.60;;
16705;SDS011;8469;60.136;15.180;2023-05-09T10:39:50;2.37;;;1.60;;
16705;SDS011;8469;60.136;15.180;2023-05-09T10:42:20;7.17;;;1.92;;
16705;SDS011;8469;60.136;15.180;2023-05-09T10:44:52;1.80;;;1.50;;
16705;SDS011;8469;60.136;15.180;2023-05-09T10:47:20;6.37;;;1.65;;
16705;SDS011;8469;60.136;15.180;2023-05-09T10:49:48;2.12;;;1.75;;
16705;SDS011;8469;60.136;15.180;2023-05-09T10:52:16;2.33;;;1.97;;
16705;SDS011;8469;60.136;15.180;2023-05-09T10:54:44;4.08;;;1.90;;
16705;SDS011;8469;60.136;15.180;2023-05-09T10:57:14;13.22;;;2.00;;
16705;SDS011;8469;60.136;15.180;2023-05-09T10:59:43;5.17;;;1.57;;
16705;SDS011;8469;60.136;15.180;2023-05-09T11:02:12;2.15;;;1.60;;
16705;SDS011;8469;60.136;15.180;2023-05-09T11:04:40;3.07;;;1.63;;
16705;SDS011;8469;60.136;15.180;2023-05-09T11:07:22;5.70;;;1.65;;
16705;SDS011;8469;60.136;15.180;2023-05-09T11:10:36;5.20;;;1.70;;
16705;SDS011;8469;60.136;15.180;2023-05-09T11:12:19;1.95;;;1.65;;
16705;SDS011;8469;60.136;15.180;2023-05-09T11:14:47;9.83;;;1.85;;
16705;SDS011;8469;60.136;15.180;2023-05-09T11:22:22;3.10;;;1.77;;
16705;SDS011;8469;60.136;15.180;2023-05-09T11:24:51;2.30;;;1.50;;
16705;SDS011;8469;60.136;15.180;2023-05-09T11:27:21;5.40;;;1.90;;
16705;SDS011;8469;60.136;15.180;2023-05-09T11:29:52;5.10;;;1.67;;
16705;SDS011;8469;60.136;15.180;2023-05-09T11:32:26;7.58;;;1.80;;
16705;SDS011;8469;60.136;15.180;2023-05-09T11:34:50;6.97;;;1.72;;
16705;SDS011;8469;60.136;15.180;2023-05-09T11:37:18;9.05;;;1.80;;
16705;SDS011;8469;60.136;15.180;2023-05-09T11:39:55;11.33;;;1.80;;
16705;SDS011;8469;60.136;15.180;2023-05-09T11:42:24;5.90;;;1.70;;
16705;SDS011;8469;60.136;15.180;2023-05-09T11:44:52;5.83;;;1.60;;
16705;SDS011;8469;60.136;15.180;2023-05-09T11:47:19;6.80;;;2.08;;
16705;SDS011;8469;60.136;15.180;2023-05-09T11:49:47;2.33;;;1.82;;
16705;SDS011;8469;60.136;15.180;2023-05-09T11:52:15;4.28;;;1.50;;
16705;SDS011;8469;60.136;15.180;2023-05-09T11:54:43;3.25;;;1.50;;
16705;SDS011;8469;60.136;15.180;2023-05-09T11:57:10;3.20;;;1.50;;
16705;SDS011;8469;60.136;15.180;2023-05-09T11:59:39;8.25;;;1.90;;
16705;SDS011;8469;60.136;15.180;2023-05-09T12:02:06;4.35;;;1.65;;
16705;SDS011;8469;60.136;15.180;2023-05-09T12:04:34;4.00;;;1.60;;
16705;SDS011;8469;60.136;15.180;2023-05-09T12:07:02;2.15;;;1.50;;
16705;SDS011;8469;60.136;15.180;2023-05-09T12:09:29;3.50;;;1.47;;
16705;SDS011;8469;60.136;15.180;2023-05-09T12:11:59;5.10;;;1.60;;
16705;SDS011;8469;60.136;15.180;2023-05-09T12:14:29;4.92;;;1.77;;
16705;SDS011;8469;60.136;15.180;2023-05-09T12:16:59;1.50;;;1.40;;
16705;SDS011;8469;60.136;15.180;2023-05-09T12:19:26;3.47;;;1.40;;
16705;SDS011;8469;60.136;15.180;2023-05-09T12:21:54;6.37;;;1.70;;
16705;SDS011;8469;60.136;15.180;2023-05-09T12:24:24;2.15;;;1.52;;
16705;SDS011;8469;60.136;15.180;2023-05-09T12:26:54;4.70;;;1.65;;
16705;SDS011;8469;60.136;15.180;2023-05-09T12:29:22;2.77;;;1.90;;
16705;SDS011;8469;60.136;15.180;2023-05-09T12:31:52;3.40;;;1.57;;
16705;SDS011;8469;60.136;15.180;2023-05-09T12:34:19;2.92;;;1.62;;
16705;SDS011;8469;60.136;15.180;2023-05-09T12:36:47;5.50;;;1.60;;
16705;SDS011;8469;60.136;15.180;2023-05-09T12:39:21;1.50;;;1.40;;
16705;SDS011;8469;60.136;15.180;2023-05-09T12:41:47;2.67;;;1.60;;
16705;SDS011;8469;60.136;15.180;2023-05-09T12:44:21;4.00;;;1.60;;
16705;SDS011;8469;60.136;15.180;2023-05-09T12:46:58;2.62;;;1.40;;
16705;SDS011;8469;60.136;15.180;2023-05-09T12:49:21;2.15;;;1.67;;
16705;SDS011;8469;60.136;15.180;2023-05-09T12:51:49;2.92;;;1.62;;
16705;SDS011;8469;60.136;15.180;2023-05-09T12:54:23;8.18;;;1.80;;
16705;SDS011;8469;60.136;15.180;2023-05-09T12:56:53;5.23;;;1.80;;
16705;SDS011;8469;60.136;15.180;2023-05-09T12:59:22;3.42;;;1.30;;
16705;SDS011;8469;60.136;15.180;2023-05-09T13:01:55;3.87;;;1.60;;
16705;SDS011;8469;60.136;15.180;2023-05-09T13:04:20;3.58;;;1.60;;
16705;SDS011;8469;60.136;15.180;2023-05-09T13:06:48;3.92;;;1.60;;
16705;SDS011;8469;60.136;15.180;2023-05-09T13:09:16;4.17;;;1.60;;
16705;SDS011;8469;60.136;15.180;2023-05-09T13:11:44;5.72;;;1.65;;
16705;SDS011;8469;60.136;15.180;2023-05-09T13:14:13;4.42;;;1.77;;
16705;SDS011;8469;60.136;15.180;2023-05-09T13:16:40;5.25;;;1.55;;
16705;SDS011;8469;60.136;15.180;2023-05-09T13:19:08;1.55;;;1.45;;
16705;SDS011;8469;60.136;15.180;2023-05-09T13:21:35;4.87;;;1.90;;
16705;SDS011;8469;60.136;15.180;2023-05-09T13:24:03;5.33;;;1.72;;
16705;SDS011;8469;60.136;15.180;2023-05-09T13:26:30;6.05;;;1.60;;
16705;SDS011;8469;60.136;15.180;2023-05-09T13:28:59;2.70;;;1.72;;
16705;SDS011;8469;60.136;15.180;2023-05-09T13:31:27;6.33;;;1.50;;
16705;SDS011;8469;60.136;15.180;2023-05-09T13:33:54;7.75;;;2.10;;
16705;SDS011;8469;60.136;15.180;2023-05-09T13:36:24;4.97;;;1.80;;
16705;SDS011;8469;60.136;15.180;2023-05-09T13:38:52;2.58;;;1.72;;
16705;SDS011;8469;60.136;15.180;2023-05-09T13:41:19;4.03;;;1.52;;
16705;SDS011;8469;60.136;15.180;2023-05-09T13:43:47;4.30;;;1.32;;
16705;SDS011;8469;60.136;15.180;2023-05-09T13:46:15;4.83;;;1.50;;
16705;SDS011;8469;60.136;15.180;2023-05-09T13:48:42;8.57;;;1.80;;
16705;SDS011;8469;60.136;15.180;2023-05-09T13:51:10;3.72;;;1.40;;
16705;SDS011;8469;60.136;15.180;2023-05-09T13:53:37;2.37;;;1.50;;
16705;SDS011;8469;60.136;15.180;2023-05-09T13:56:05;2.60;;;1.50;;
16705;SDS011;8469;60.136;15.180;2023-05-09T13:58:34;4.08;;;1.62;;
16705;SDS011;8469;60.136;15.180;2023-05-09T14:01:02;7.80;;;1.75;;
16705;SDS011;8469;60.136;15.180;2023-05-09T14:03:29;3.72;;;1.45;;
16705;SDS011;8469;60.136;15.180;2023-05-09T14:05:57;8.18;;;1.67;;
16705;SDS011;8469;60.136;15.180;2023-05-09T14:08:27;2.70;;;1.60;;
16705;SDS011;8469;60.136;15.180;2023-05-09T14:10:55;3.40;;;1.40;;
16705;SDS011;8469;60.136;15.180;2023-05-09T14:13:24;3.90;;;1.62;;
16705;SDS011;8469;60.136;15.180;2023-05-09T14:15:51;5.03;;;1.60;;
16705;SDS011;8469;60.136;15.180;2023-05-09T14:18:18;4.97;;;1.70;;
16705;SDS011;8469;60.136;15.180;2023-05-09T14:20:46;6.60;;;1.60;;
16705;SDS011;8469;60.136;15.180;2023-05-09T14:23:13;1.50;;;1.40;;
16705;SDS011;8469;60.136;15.180;2023-05-09T14:25:41;4.10;;;1.40;;
16705;SDS011;8469;60.136;15.180;2023-05-09T14:28:08;3.37;;;1.65;;
16705;SDS011;8469;60.136;15.180;2023-05-09T14:30:36;3.67;;;1.80;;
16705;SDS011;8469;60.136;15.180;2023-05-09T14:33:03;7.90;;;1.60;;
16705;SDS011;8469;60.136;15.180;2023-05-09T14:35:31;6.03;;;1.60;;
16705;SDS011;8469;60.136;15.180;2023-05-09T14:37:59;1.60;;;1.50;;
16705;SDS011;8469;60.136;15.180;2023-05-09T14:40:26;3.10;;;1.50;;
16705;SDS011;8469;60.136;15.180;2023-05-09T14:43:00;10.27;;;1.80;;
16705;SDS011;8469;60.136;15.180;2023-05-09T14:45:31;3.40;;;1.50;;
16705;SDS011;8469;60.136;15.180;2023-05-09T14:47:59;5.40;;;1.72;;
16705;SDS011;8469;60.136;15.180;2023-05-09T14:50:28;6.20;;;1.57;;
16705;SDS011;8469;60.136;15.180;2023-05-09T14:52:55;1.70;;;1.60;;
16705;SDS011;8469;60.136;15.180;2023-05-09T14:55:23;3.72;;;1.77;;
16705;SDS011;8469;60.136;15.180;2023-05-09T14:57:51;1.75;;;1.65;;
16705;SDS011;8469;60.136;15.180;2023-05-09T15:00:18;3.83;;;1.67;;
16705;SDS011;8469;60.136;15.180;2023-05-09T15:02:47;1.95;;;1.60;;